San Francisco, California
Traffic Map
Current Weather Conditions
San Francisco, California
Clear
Clear
64°
Feels Like: 64°
Wind Chill: 64° Ceiling: Unl
Heat Index: 64° Visibility: 10mi
Dew Point: 56° Wind: 8mph
Humidity: 75% Direction: 270° (W)
Pressure: 30.03in Gusts: 0mph
Raw Report DataKSFO 210456Z 27007KT 10SM CLR 18/13 A3003 RMK AO2 SLP169 T01780133
Traffic Incident Summary
Active as of:
Severity:
Category:
InformationThere was an issue retrieving the traffic information for this location. Please try a different location or try again shortly.
Advertisements
Track Severe Weather on mobile